Time;durP1;ratioP1;P1;durP2;ratioP2;P2;SDS_P1;SDS_P2;PMS_P1;PMS_P2;Temp;Humidity;BMP_temperature;BMP_pressure;BME280_temperature;BME280_humidity;BME280_pressure;Samples;Min_cycle;Max_cycle;Signal;HPM_P1;HPM_P2
2022/01/12 00:01:59;;;;;;;24.92;13.10;;;2.20;99.90;;;;;;5113790;28;20172;-50
2022/01/12 00:04:25;;;;;;;21.17;11.90;;;2.30;99.90;;;;;;5113485;28;20164;-50
2022/01/12 00:06:50;;;;;;;20.70;11.57;;;2.30;99.90;;;;;;5113167;28;20608;-51
2022/01/12 00:09:16;;;;;;;16.70;11.10;;;2.30;99.90;;;;;;5113114;28;20175;-50
2022/01/12 00:11:41;;;;;;;21.65;11.18;;;2.40;99.90;;;;;;5113313;28;20209;-51
2022/01/12 00:14:08;;;;;;;18.08;10.75;;;2.30;99.90;;;;;;5112844;28;20244;-50
2022/01/12 00:16:34;;;;;;;24.98;14.15;;;2.40;99.90;;;;;;5113012;28;20240;-51
2022/01/12 00:19:00;;;;;;;22.77;12.07;;;2.40;99.90;;;;;;5113233;28;20628;-51
2022/01/12 00:21:26;;;;;;;21.95;11.18;;;2.40;99.90;;;;;;5112961;28;20172;-50
2022/01/12 00:23:52;;;;;;;18.77;12.15;;;2.40;99.90;;;;;;5112832;28;20169;-51
2022/01/12 00:26:41;;;;;;;19.33;11.60;;;2.30;99.90;;;;;;5112776;28;20192;-51
2022/01/12 00:34:35;;;;;;;16.50;9.52;;;2.20;99.90;;;;;;5112746;28;20187;-48
2022/01/12 00:37:00;;;;;;;17.77;10.13;;;2.20;99.90;;;;;;5112965;28;20671;-49
2022/01/12 00:39:26;;;;;;;21.40;13.32;;;2.20;99.90;;;;;;5112638;28;20165;-52
2022/01/12 00:41:52;;;;;;;16.52;9.05;;;2.30;99.90;;;;;;5112572;28;20596;-51
2022/01/12 00:44:31;;;;;;;14.93;9.57;;;2.20;99.90;;;;;;5112606;28;20255;-51
2022/01/12 00:46:57;;;;;;;17.02;9.88;;;2.10;99.90;;;;;;5112873;28;20157;-51
2022/01/12 00:49:22;;;;;;;16.10;9.48;;;2.10;99.90;;;;;;5112477;28;20214;-49
2022/01/12 00:51:50;;;;;;;16.08;10.18;;;2.20;99.90;;;;;;5094233;28;20173;-51
2022/01/12 00:54:17;;;;;;;17.70;9.40;;;2.10;99.90;;;;;;5112680;28;20172;-50
2022/01/12 00:56:42;;;;;;;16.05;10.57;;;2.00;99.90;;;;;;5094157;28;20204;-51
2022/01/12 00:59:08;;;;;;;20.98;11.05;;;2.00;99.90;;;;;;5112483;28;20206;-51
2022/01/12 01:01:33;;;;;;;22.48;11.20;;;2.00;99.90;;;;;;5112294;28;20561;-50
2022/01/12 01:03:59;;;;;;;15.35;9.10;;;2.00;99.90;;;;;;5112690;28;20621;-51
2022/01/12 01:06:24;;;;;;;16.55;10.45;;;1.90;99.90;;;;;;5112176;28;20247;-50
2022/01/12 01:08:51;;;;;;;19.42;9.15;;;1.80;99.90;;;;;;5112006;28;20172;-50
2022/01/12 01:11:17;;;;;;;20.20;10.27;;;1.90;99.90;;;;;;5112327;28;20160;-51
2022/01/12 01:13:57;;;;;;;17.65;11.68;;;1.80;99.90;;;;;;5112115;28;20224;-51
2022/01/12 01:16:31;;;;;;;18.20;9.93;;;1.80;99.90;;;;;;5112390;28;20687;-51
2022/01/12 01:27:09;;;;;;;14.05;9.60;;;1.80;99.90;;;;;;5112155;28;20221;-50
2022/01/12 01:29:35;;;;;;;17.25;10.23;;;1.90;99.90;;;;;;5112097;28;20173;-50
2022/01/12 01:32:00;;;;;;;18.52;10.13;;;1.80;99.90;;;;;;5112395;28;20535;-50
2022/01/12 01:34:27;;;;;;;17.55;11.15;;;1.80;99.90;;;;;;5111991;28;20168;-51
2022/01/12 01:36:55;;;;;;;14.45;9.82;;;1.80;99.90;;;;;;5111981;28;20200;-50
2022/01/12 01:39:23;;;;;;;17.85;10.35;;;1.90;99.90;;;;;;5112281;28;20169;-50
2022/01/12 01:41:53;;;;;;;16.48;10.20;;;1.90;99.90;;;;;;5111977;28;20161;-50
2022/01/12 01:54:46;;;;;;;15.40;9.68;;;2.00;99.90;;;;;;5111890;28;20205;-50
2022/01/12 01:57:12;;;;;;;18.02;9.63;;;2.00;99.90;;;;;;5111888;28;20177;-51
2022/01/12 01:59:38;;;;;;;16.40;9.95;;;1.90;99.90;;;;;;5111882;28;20193;-50
2022/01/12 02:02:03;;;;;;;17.38;9.65;;;2.00;99.90;;;;;;5112857;28;20252;-50
2022/01/12 02:04:29;;;;;;;18.58;10.73;;;2.00;99.90;;;;;;5097549;28;20528;-50
2022/01/12 02:06:58;;;;;;;18.83;10.65;;;1.90;99.90;;;;;;5115521;28;20310;-50
2022/01/12 02:09:25;;;;;;;15.35;9.18;;;2.00;99.90;;;;;;5115366;28;20229;-51
2022/01/12 02:11:52;;;;;;;13.48;9.05;;;2.00;99.90;;;;;;5115277;28;20161;-51
2022/01/12 02:14:19;;;;;;;16.70;9.90;;;1.90;99.90;;;;;;5115308;28;20640;-50
2022/01/12 02:17:05;;;;;;;19.13;10.02;;;1.90;99.90;;;;;;5115138;28;20292;-51
2022/01/12 02:19:56;;;;;;;18.75;10.48;;;2.00;99.90;;;;;;5115824;28;20301;-51
2022/01/12 02:36:32;;;;;;;19.02;9.23;;;1.90;99.90;;;;;;5114973;28;20570;-50
2022/01/12 02:41:42;;;;;;;15.63;8.60;;;1.90;99.90;;;;;;5114963;28;20571;-50
2022/01/12 02:54:53;;;;;;;15.23;9.82;;;1.80;99.90;;;;;;5114767;28;20255;-51
2022/01/12 02:57:19;;;;;;;11.63;7.80;;;1.80;99.90;;;;;;5114689;28;20176;-51
2022/01/12 03:02:27;;;;;;;16.88;8.18;;;1.80;99.90;;;;;;5114721;28;20161;-51
2022/01/12 03:05:13;;;;;;;15.48;8.35;;;1.70;99.90;;;;;;5114638;28;20247;-51
2022/01/12 03:07:39;;;;;;;17.88;8.57;;;1.90;99.90;;;;;;5114220;28;20185;-51
2022/01/12 03:10:07;;;;;;;13.30;8.20;;;1.90;99.90;;;;;;5114578;28;20179;-50
2022/01/12 03:12:35;;;;;;;14.27;8.52;;;1.90;99.90;;;;;;5114050;28;20208;-50
2022/01/12 03:15:00;;;;;;;15.13;7.55;;;1.90;99.90;;;;;;5113294;28;20172;-51
2022/01/12 03:17:26;;;;;;;12.82;7.93;;;1.90;99.90;;;;;;5114409;28;20540;-50
2022/01/12 03:19:51;;;;;;;15.85;8.50;;;1.90;99.90;;;;;;5114042;28;20160;-50
2022/01/12 03:22:17;;;;;;;12.88;7.70;;;2.00;99.90;;;;;;5114084;28;20172;-51
2022/01/12 03:24:42;;;;;;;13.88;7.78;;;1.90;99.90;;;;;;5095678;28;20200;-51
2022/01/12 03:27:13;;;;;;;12.55;8.23;;;1.90;99.90;;;;;;5114185;28;20164;-50
2022/01/12 03:29:41;;;;;;;14.55;8.30;;;2.00;99.90;;;;;;5114131;28;20169;-50
2022/01/12 03:32:10;;;;;;;12.45;7.32;;;2.00;99.90;;;;;;5114093;28;20535;-50
2022/01/12 03:34:37;;;;;;;15.07;8.48;;;1.90;99.90;;;;;;5113810;28;20654;-50
2022/01/12 03:37:18;;;;;;;14.40;7.65;;;2.00;99.90;;;;;;5113603;28;20610;-50
2022/01/12 03:39:43;;;;;;;13.70;7.30;;;2.00;99.90;;;;;;5113983;28;20524;-51
2022/01/12 03:42:09;;;;;;;18.38;8.73;;;1.90;99.90;;;;;;5113885;28;20184;-50
2022/01/12 03:44:34;;;;;;;15.50;8.65;;;2.00;99.90;;;;;;5113601;28;20512;-51
2022/01/12 03:47:00;;;;;;;12.32;8.80;;;2.00;99.90;;;;;;5114216;28;20164;-51
2022/01/12 03:49:27;;;;;;;16.20;7.78;;;2.00;99.90;;;;;;5113448;28;20247;-51
2022/01/12 03:51:53;;;;;;;13.07;7.97;;;2.00;99.90;;;;;;5113728;28;20237;-51
2022/01/12 03:54:19;;;;;;;16.15;8.02;;;2.10;99.90;;;;;;5113362;28;20165;-51
2022/01/12 03:56:45;;;;;;;14.43;8.73;;;2.10;99.90;;;;;;5113319;28;20276;-51
2022/01/12 03:59:10;;;;;;;15.00;7.68;;;2.20;99.90;;;;;;5095140;28;20259;-51
2022/01/12 04:01:36;;;;;;;18.05;8.95;;;2.20;99.90;;;;;;5113498;28;20268;-51
2022/01/12 04:04:06;;;;;;;15.55;9.00;;;2.10;99.90;;;;;;5113268;28;20516;-49
2022/01/12 04:09:17;;;;;;;12.85;8.27;;;2.20;99.90;;;;;;5113416;28;20171;-51
2022/01/12 04:11:43;;;;;;;13.65;7.55;;;2.10;99.90;;;;;;5113250;28;20164;-50
2022/01/12 04:14:08;;;;;;;15.93;8.70;;;2.10;99.90;;;;;;5112864;28;20699;-51
2022/01/12 04:16:35;;;;;;;12.85;7.90;;;2.10;99.90;;;;;;5112932;28;20249;-50
2022/01/12 04:19:01;;;;;;;12.13;7.32;;;2.20;99.90;;;;;;5113325;28;20510;-51
2022/01/12 04:21:29;;;;;;;12.77;7.93;;;2.20;99.90;;;;;;5113345;28;20165;-51
2022/01/12 04:23:56;;;;;;;13.20;7.82;;;2.20;99.90;;;;;;5113143;28;20203;-51
2022/01/12 04:26:23;;;;;;;11.77;7.78;;;2.10;99.90;;;;;;5112535;28;20168;-51
2022/01/12 04:28:48;;;;;;;14.82;8.20;;;2.20;99.90;;;;;;5113128;28;20176;-50
2022/01/12 04:31:14;;;;;;;13.88;7.65;;;2.20;99.90;;;;;;5112745;28;20168;-51
2022/01/12 04:33:42;;;;;;;11.38;7.75;;;2.20;99.90;;;;;;5112846;28;20184;-50
2022/01/12 04:36:09;;;;;;;13.00;7.53;;;2.30;99.90;;;;;;5112860;28;20227;-50
2022/01/12 04:38:37;;;;;;;11.63;6.82;;;2.30;99.90;;;;;;5112851;28;20171;-51
2022/01/12 04:41:07;;;;;;;11.07;6.80;;;2.40;99.90;;;;;;5112632;28;20238;-49
2022/01/12 04:43:34;;;;;;;13.65;7.15;;;2.30;99.90;;;;;;5112586;28;20248;-50
2022/01/12 04:48:37;;;;;;;12.77;7.78;;;2.40;99.90;;;;;;5113094;28;20164;-50
2022/01/12 04:51:03;;;;;;;12.80;8.60;;;2.40;99.90;;;;;;5112574;28;20165;-50
2022/01/12 04:53:31;;;;;;;14.57;9.23;;;2.40;99.90;;;;;;5112738;28;20172;-51
2022/01/12 04:55:57;;;;;;;14.05;8.48;;;2.40;99.90;;;;;;5112584;28;20204;-49
2022/01/12 04:58:23;;;;;;;14.43;8.15;;;2.50;99.90;;;;;;5112610;28;20173;-49
2022/01/12 05:00:52;;;;;;;13.38;8.07;;;2.40;99.90;;;;;;5112727;28;20168;-50
2022/01/12 05:13:59;;;;;;;14.00;7.40;;;2.50;99.90;;;;;;5112449;28;20223;-49
2022/01/12 05:16:25;;;;;;;13.10;7.70;;;2.50;99.90;;;;;;5112465;28;20218;-51
2022/01/12 05:18:53;;;;;;;12.00;7.43;;;2.50;99.90;;;;;;5112237;28;20168;-50
2022/01/12 05:21:21;;;;;;;12.95;6.95;;;2.50;99.90;;;;;;5093878;28;20584;-49
2022/01/12 05:23:46;;;;;;;10.45;5.85;;;2.50;99.90;;;;;;5112103;28;20161;-50
2022/01/12 05:26:12;;;;;;;12.65;7.50;;;2.60;99.90;;;;;;5112192;28;20176;-51
2022/01/12 05:28:38;;;;;;;11.38;7.05;;;2.60;99.90;;;;;;5112190;28;20306;-50
2022/01/12 05:31:05;;;;;;;12.43;8.15;;;2.60;99.90;;;;;;5112135;28;20217;-50
2022/01/12 05:33:32;;;;;;;13.40;7.78;;;2.70;99.90;;;;;;5112359;28;20161;-50
2022/01/12 05:35:59;;;;;;;13.32;7.65;;;2.60;99.90;;;;;;5112320;28;20201;-50
2022/01/12 05:38:26;;;;;;;11.95;7.40;;;2.70;99.90;;;;;;5115291;28;20209;-50
2022/01/12 05:40:55;;;;;;;14.95;7.90;;;2.70;99.90;;;;;;5116039;28;20237;-49
2022/01/12 05:43:25;;;;;;;14.20;9.43;;;2.60;99.90;;;;;;5116244;28;20169;-50
2022/01/12 05:45:54;;;;;;;17.33;11.30;;;2.60;99.90;;;;;;5116221;28;20172;-49
2022/01/12 05:50:51;;;;;;;10.63;7.22;;;2.50;99.90;;;;;;5116107;28;20164;-50
2022/01/12 05:53:17;;;;;;;19.15;13.75;;;2.60;99.90;;;;;;5116061;28;20173;-50
2022/01/12 05:55:43;;;;;;;19.73;12.27;;;2.60;99.90;;;;;;5115824;28;20276;-50
2022/01/12 05:58:09;;;;;;;15.60;10.32;;;2.60;99.90;;;;;;5115382;28;20666;-49
2022/01/12 06:00:35;;;;;;;16.08;9.45;;;2.60;99.90;;;;;;5115686;28;20256;-48
2022/01/12 06:03:01;;;;;;;14.68;10.30;;;2.60;99.90;;;;;;5116010;28;20160;-49
2022/01/12 06:05:28;;;;;;;22.77;12.93;;;2.60;99.90;;;;;;5115476;28;20652;-51
2022/01/12 06:07:54;;;;;;;23.88;14.45;;;2.70;99.90;;;;;;5115787;28;20173;-48
2022/01/12 06:10:22;;;;;;;15.77;10.52;;;2.60;99.90;;;;;;5115462;28;20173;-49
2022/01/12 06:12:48;;;;;;;14.13;9.68;;;2.60;99.90;;;;;;5115377;28;20223;-50
2022/01/12 06:15:14;;;;;;;14.07;9.32;;;2.70;99.90;;;;;;5115279;28;20201;-50
2022/01/12 06:17:39;;;;;;;13.57;8.45;;;2.70;99.90;;;;;;5115328;28;20219;-51
2022/01/12 06:20:06;;;;;;;14.57;8.20;;;2.60;99.90;;;;;;5115593;28;20183;-50
2022/01/12 06:22:32;;;;;;;15.20;9.43;;;2.50;99.90;;;;;;5115121;28;20165;-47
2022/01/12 06:24:59;;;;;;;13.00;9.05;;;2.40;99.90;;;;;;5115524;28;20168;-50
2022/01/12 06:27:29;;;;;;;14.13;10.15;;;2.40;99.90;;;;;;5115088;28;20545;-50
2022/01/12 06:32:20;;;;;;;11.80;7.55;;;2.50;99.90;;;;;;5114962;28;20552;-50
2022/01/12 06:34:46;;;;;;;15.57;8.90;;;2.40;99.90;;;;;;5114298;28;20161;-51
2022/01/12 06:37:12;;;;;;;16.30;8.68;;;2.50;99.90;;;;;;5114346;28;20200;-51
2022/01/12 06:39:38;;;;;;;18.55;8.88;;;2.50;99.90;;;;;;5114039;28;20161;-51
2022/01/12 06:42:04;;;;;;;13.23;8.93;;;2.40;99.90;;;;;;5114039;28;20234;-51
2022/01/12 06:44:30;;;;;;;13.45;7.85;;;2.50;99.90;;;;;;5114277;28;20606;-51
2022/01/12 06:46:57;;;;;;;15.65;8.70;;;2.40;99.90;;;;;;5113906;28;20251;-52
2022/01/12 06:49:23;;;;;;;17.70;8.18;;;2.40;99.90;;;;;;5113985;28;20251;-51
2022/01/12 06:51:48;;;;;;;13.05;7.10;;;2.50;99.90;;;;;;5114463;28;20216;-51
2022/01/12 06:54:18;;;;;;;12.63;8.35;;;2.50;99.90;;;;;;5114628;28;20188;-51
2022/01/12 06:56:44;;;;;;;12.57;7.38;;;2.50;99.90;;;;;;5114423;28;20695;-51
2022/01/12 06:59:09;;;;;;;11.05;7.45;;;2.50;99.90;;;;;;5096094;28;20175;-51
2022/01/12 07:01:35;;;;;;;13.13;8.10;;;2.50;99.90;;;;;;5114636;28;20176;-51
2022/01/12 07:04:01;;;;;;;14.05;7.55;;;2.50;99.90;;;;;;5114792;28;20558;-51
2022/01/12 07:06:26;;;;;;;12.88;8.05;;;2.50;99.90;;;;;;5114537;28;20179;-52
2022/01/12 07:08:52;;;;;;;11.55;8.40;;;2.50;99.90;;;;;;5114276;28;20241;-51
2022/01/12 07:11:18;;;;;;;15.57;8.57;;;2.60;99.90;;;;;;5114288;28;20217;-50
2022/01/12 07:13:44;;;;;;;12.68;7.25;;;2.60;99.90;;;;;;5114180;28;20224;-51
2022/01/12 07:16:11;;;;;;;11.65;6.90;;;2.60;99.90;;;;;;5114305;28;20628;-50
2022/01/12 07:18:37;;;;;;;15.02;7.90;;;2.60;99.90;;;;;;5114042;28;20161;-50
2022/01/12 07:21:03;;;;;;;13.48;8.00;;;2.60;99.90;;;;;;5114211;28;20164;-51
2022/01/12 07:23:29;;;;;;;13.07;8.32;;;2.60;99.90;;;;;;5114304;28;20210;-49
2022/01/12 07:25:54;;;;;;;14.60;8.70;;;2.50;99.90;;;;;;5113992;28;20238;-51
2022/01/12 07:28:21;;;;;;;14.27;8.02;;;2.50;99.90;;;;;;5113954;28;20160;-51
2022/01/12 07:30:47;;;;;;;11.52;7.82;;;2.50;99.90;;;;;;5113872;28;20569;-50
2022/01/12 07:33:13;;;;;;;11.88;8.00;;;2.50;99.90;;;;;;5113880;28;20210;-50
2022/01/12 07:35:40;;;;;;;12.63;8.45;;;2.50;99.90;;;;;;5114001;28;20204;-49
2022/01/12 07:38:05;;;;;;;12.80;8.02;;;2.60;99.90;;;;;;5113855;28;20526;-47
2022/01/12 07:40:33;;;;;;;12.77;9.70;;;2.50;99.90;;;;;;5114080;28;20164;-50
2022/01/12 07:42:59;;;;;;;13.23;8.50;;;2.60;99.90;;;;;;5113917;28;20184;-51
2022/01/12 07:45:25;;;;;;;11.68;7.60;;;2.60;99.90;;;;;;5095431;28;20219;-48
2022/01/12 07:47:50;;;;;;;11.27;7.55;;;2.70;99.90;;;;;;5113477;28;20172;-51
2022/01/12 07:50:16;;;;;;;12.18;7.88;;;2.60;99.90;;;;;;5113554;28;20172;-50
2022/01/12 07:52:41;;;;;;;13.95;8.63;;;2.70;99.90;;;;;;5113745;28;20636;-48
2022/01/12 07:55:07;;;;;;;15.25;8.48;;;2.60;99.90;;;;;;5113325;28;20179;-51
2022/01/12 07:57:33;;;;;;;10.57;6.93;;;2.60;99.90;;;;;;5113410;28;20169;-51
2022/01/12 07:59:59;;;;;;;14.75;7.50;;;2.60;99.90;;;;;;5113158;28;20265;-52
2022/01/12 08:02:25;;;;;;;14.23;8.00;;;2.70;99.90;;;;;;5113350;28;20157;-51
2022/01/12 08:04:50;;;;;;;13.18;8.05;;;2.70;99.90;;;;;;5113580;28;20226;-52
2022/01/12 08:07:16;;;;;;;11.23;8.05;;;2.70;99.90;;;;;;5113266;28;20169;-51
2022/01/12 08:09:43;;;;;;;13.27;7.60;;;2.80;99.90;;;;;;5113513;28;20488;-51
2022/01/12 08:12:09;;;;;;;14.57;8.15;;;2.80;99.90;;;;;;5113063;28;20224;-52
2022/01/12 08:14:35;;;;;;;12.95;7.78;;;2.90;99.90;;;;;;5113043;28;20198;-51
2022/01/12 08:17:01;;;;;;;12.73;8.10;;;2.80;99.90;;;;;;5113344;28;20582;-51
2022/01/12 08:19:28;;;;;;;14.02;8.02;;;1.70;99.90;;;;;;5113311;28;20165;-51
2022/01/12 08:21:54;;;;;;;17.40;8.98;;;2.90;99.90;;;;;;5113004;28;20196;-48
2022/01/12 08:24:19;;;;;;;11.75;8.50;;;2.90;99.90;;;;;;5112908;28;20556;-51
2022/01/12 08:26:45;;;;;;;11.63;7.82;;;2.90;99.90;;;;;;5112960;28;20741;-51
2022/01/12 08:29:14;;;;;;;12.35;8.43;;;2.80;99.90;;;;;;5112829;28;20180;-52
2022/01/12 08:31:42;;;;;;;18.17;9.43;;;2.80;99.90;;;;;;5113037;28;20260;-51
2022/01/12 08:34:10;;;;;;;17.02;9.32;;;2.90;99.90;;;;;;5112725;28;20169;-51
2022/01/12 08:36:36;;;;;;;15.93;8.90;;;3.00;99.90;;;;;;5112922;28;20212;-51
2022/01/12 08:39:03;;;;;;;13.50;8.63;;;3.00;99.90;;;;;;5112690;28;20189;-51
2022/01/12 08:41:29;;;;;;;13.93;8.63;;;3.00;99.90;;;;;;5113196;28;20522;-52
2022/01/12 08:43:54;;;;;;;15.65;8.07;;;3.00;99.90;;;;;;5094355;28;20259;-51
2022/01/12 08:46:20;;;;;;;17.45;7.78;;;3.10;99.90;;;;;;5112833;28;20249;-52
2022/01/12 08:48:46;;;;;;;18.40;8.68;;;3.00;99.90;;;;;;5112650;28;20172;-51
2022/01/12 08:51:12;;;;;;;13.35;7.97;;;3.20;99.90;;;;;;5112874;28;20169;-52
2022/01/12 08:53:37;;;;;;;12.27;8.18;;;3.20;99.90;;;;;;5112521;28;20172;-52
2022/01/12 08:56:03;;;;;;;12.77;7.60;;;3.20;99.90;;;;;;5112501;28;20224;-51
2022/01/12 08:58:29;;;;;;;11.65;7.28;;;3.30;99.90;;;;;;5113016;28;20176;-51
2022/01/12 09:00:55;;;;;;;18.42;12.57;;;3.30;99.90;;;;;;5112453;28;20525;-52
2022/01/12 09:03:22;;;;;;;13.77;8.75;;;3.30;99.90;;;;;;5112410;28;20249;-51
2022/01/12 09:05:49;;;;;;;13.63;8.02;;;3.30;99.90;;;;;;5112356;28;20245;-52
2022/01/12 09:08:15;;;;;;;14.13;8.27;;;3.30;99.90;;;;;;5112417;28;20165;-52
2022/01/12 09:10:40;;;;;;;15.02;8.40;;;3.40;99.90;;;;;;5112345;28;20173;-51
2022/01/12 09:13:06;;;;;;;12.40;7.82;;;3.40;99.90;;;;;;5115226;28;20224;-51
2022/01/12 09:15:31;;;;;;;21.55;9.57;;;3.50;99.90;;;;;;5116483;28;20192;-49
2022/01/12 09:17:57;;;;;;;17.50;9.68;;;3.50;99.90;;;;;;5116898;28;20165;-51
2022/01/12 09:20:24;;;;;;;18.23;9.45;;;3.40;99.90;;;;;;5116480;28;20173;-51
2022/01/12 09:22:50;;;;;;;13.98;8.48;;;3.40;99.90;;;;;;5116132;28;20251;-52
2022/01/12 09:25:16;;;;;;;13.85;7.85;;;3.40;99.90;;;;;;5115886;28;20632;-51
2022/01/12 09:27:42;;;;;;;14.60;8.35;;;3.40;99.90;;;;;;5116377;28;20214;-52
2022/01/12 09:30:10;;;;;;;15.95;8.52;;;3.40;99.90;;;;;;5116162;28;20209;-51
2022/01/12 09:32:36;;;;;;;15.10;7.70;;;3.40;99.90;;;;;;5116064;28;20204;-51
2022/01/12 09:35:02;;;;;;;14.75;7.82;;;3.40;99.90;;;;;;5115836;28;20210;-50
2022/01/12 09:37:28;;;;;;;16.45;8.35;;;3.40;99.90;;;;;;5116603;28;20173;-51
2022/01/12 09:39:54;;;;;;;20.50;8.65;;;3.50;99.90;;;;;;5115692;28;20172;-51
2022/01/12 09:42:19;;;;;;;15.65;7.90;;;3.40;99.90;;;;;;5115815;28;20169;-51
2022/01/12 09:44:47;;;;;;;13.35;7.50;;;3.50;99.90;;;;;;5115999;28;20240;-51
2022/01/12 09:47:13;;;;;;;12.48;7.10;;;3.40;99.90;;;;;;5115959;28;20531;-51
2022/01/12 09:49:40;;;;;;;12.85;7.50;;;3.40;99.90;;;;;;5115853;28;20171;-51
2022/01/12 09:52:06;;;;;;;12.65;7.38;;;3.40;99.90;;;;;;5115960;28;20654;-51
2022/01/12 09:54:32;;;;;;;9.98;6.78;;;3.50;99.90;;;;;;5116048;28;20169;-50
2022/01/12 09:56:58;;;;;;;11.38;7.13;;;3.50;99.90;;;;;;5115928;28;20269;-51
2022/01/12 09:59:24;;;;;;;11.82;6.93;;;3.50;99.90;;;;;;5116035;28;20168;-51
2022/01/12 10:01:51;;;;;;;13.27;7.53;;;3.50;99.90;;;;;;5097403;28;20168;-50
2022/01/12 10:04:22;;;;;;;17.65;7.50;;;3.50;99.90;;;;;;5115865;28;20183;-51
2022/01/12 10:06:50;;;;;;;10.43;7.05;;;3.50;99.90;;;;;;5115811;28;20168;-50
2022/01/12 10:09:17;;;;;;;17.02;8.15;;;3.40;99.90;;;;;;5115482;28;20569;-51
2022/01/12 10:11:56;;;;;;;16.50;8.80;;;3.40;99.90;;;;;;5115624;28;20179;-50
2022/01/12 10:14:23;;;;;;;22.42;9.93;;;3.50;99.90;;;;;;5115284;28;20172;-49
2022/01/12 10:16:54;;;;;;;23.42;10.95;;;3.50;99.90;;;;;;5116127;28;20208;-50
2022/01/12 10:19:31;;;;;;;25.25;11.05;;;3.50;99.90;;;;;;5115326;28;20157;-49
2022/01/12 10:21:59;;;;;;;23.63;10.32;;;3.60;99.90;;;;;;5115595;28;20247;-51
2022/01/12 10:24:26;;;;;;;25.35;11.48;;;3.60;99.90;;;;;;5114657;28;20164;-51
2022/01/12 10:26:52;;;;;;;23.48;10.23;;;3.60;99.90;;;;;;5096926;28;20205;-51
2022/01/12 10:29:20;;;;;;;26.10;10.93;;;3.70;99.90;;;;;;5114950;28;20176;-50
2022/01/12 10:31:53;;;;;;;21.40;10.27;;;3.70;99.90;;;;;;5115131;28;20188;-51
2022/01/12 10:34:35;;;;;;;20.50;10.15;;;3.70;99.90;;;;;;5115135;28;20165;-51
2022/01/12 10:37:04;;;;;;;25.88;10.90;;;3.70;99.90;;;;;;5115365;28;20209;-51
2022/01/12 10:39:30;;;;;;;22.67;11.00;;;3.70;99.90;;;;;;5115202;28;20233;-48
2022/01/12 10:42:06;;;;;;;24.65;10.98;;;3.70;99.90;;;;;;5113558;28;20687;-52
2022/01/12 10:44:37;;;;;;;28.38;11.38;;;3.70;99.90;;;;;;5113677;28;20160;-49
2022/01/12 10:47:04;;;;;;;23.70;10.98;;;3.70;99.90;;;;;;5130711;27;20635;-51
2022/01/12 10:49:36;;;;;;;30.70;10.68;;;3.70;99.90;;;;;;5134446;27;20530;-53
2022/01/12 10:52:02;;;;;;;31.30;12.63;;;3.70;99.90;;;;;;5134636;27;20179;-52
2022/01/12 10:54:28;;;;;;;29.55;13.63;;;3.70;99.90;;;;;;5134201;27;20564;-52
2022/01/12 10:56:54;;;;;;;34.13;14.18;;;3.70;99.90;;;;;;5133717;27;20203;-54
2022/01/12 10:59:21;;;;;;;32.65;12.02;;;3.70;99.90;;;;;;5133427;27;20160;-49
2022/01/12 11:01:47;;;;;;;36.33;14.18;;;3.70;99.90;;;;;;5134041;27;20198;-50
2022/01/12 11:04:13;;;;;;;35.58;14.40;;;3.70;99.90;;;;;;5133538;27;20168;-52
2022/01/12 11:06:40;;;;;;;38.85;14.68;;;3.70;99.90;;;;;;5133817;27;20691;-54
2022/01/12 11:09:06;;;;;;;35.30;14.50;;;3.70;99.90;;;;;;5133530;27;20368;-51
2022/01/12 11:11:32;;;;;;;33.05;12.85;;;3.70;99.90;;;;;;5134109;27;20163;-54
2022/01/12 11:13:59;;;;;;;38.72;14.35;;;3.70;99.90;;;;;;5133677;27;20215;-52
2022/01/12 11:16:28;;;;;;;44.22;15.52;;;3.60;99.90;;;;;;5133412;27;20196;-51
2022/01/12 11:18:54;;;;;;;52.42;17.30;;;3.60;99.90;;;;;;5133261;27;20166;-53
2022/01/12 11:21:36;;;;;;;49.80;17.35;;;3.60;99.90;;;;;;5133250;27;20176;-53
2022/01/12 11:24:04;;;;;;;44.97;17.58;;;3.60;99.90;;;;;;5133808;27;20164;-52
2022/01/12 11:26:31;;;;;;;47.08;16.70;;;3.60;99.90;;;;;;5115140;27;20180;-49
2022/01/12 11:28:58;;;;;;;58.25;20.60;;;3.70;99.90;;;;;;5133563;27;20164;-49
2022/01/12 11:31:32;;;;;;;48.42;18.30;;;3.80;99.90;;;;;;5133540;27;20259;-51
2022/01/12 11:33:59;;;;;;;55.92;19.80;;;3.70;99.90;;;;;;5132695;27;20228;-51
2022/01/12 11:36:28;;;;;;;53.03;18.38;;;3.70;99.90;;;;;;5132349;27;20659;-57
2022/01/12 11:39:09;;;;;;;55.03;18.98;;;3.80;99.90;;;;;;5132862;27;20199;-54
2022/01/12 11:41:38;;;;;;;43.25;16.85;;;3.80;99.90;;;;;;5133200;27;20196;-46
2022/01/12 11:44:12;;;;;;;58.40;19.23;;;3.80;99.90;;;;;;5132719;27;20164;-52
2022/01/12 11:46:44;;;;;;;54.58;19.85;;;3.80;99.90;;;;;;5133493;27;20210;-53
2022/01/12 11:49:11;;;;;;;56.53;19.25;;;3.80;99.90;;;;;;5132779;27;20221;-52
2022/01/12 11:51:43;;;;;;;48.28;18.63;;;3.90;99.90;;;;;;5132722;27;20207;-49
2022/01/12 11:54:16;;;;;;;53.25;19.55;;;4.00;99.90;;;;;;5132292;27;20596;-58
2022/01/12 11:57:01;;;;;;;57.47;19.20;;;4.00;99.90;;;;;;5132781;27;20219;-51
2022/01/12 11:59:28;;;;;;;54.65;17.25;;;4.00;99.90;;;;;;5132509;27;20187;-62
2022/01/12 12:02:06;;;;;;;55.63;18.85;;;3.90;99.90;;;;;;5132430;27;20164;-45
2022/01/12 12:04:33;;;;;;;63.63;19.13;;;3.90;99.90;;;;;;5132114;27;20628;-50
2022/01/12 12:07:13;;;;;;;72.75;19.70;;;4.00;99.90;;;;;;5132340;27;20226;-57
2022/01/12 12:09:41;;;;;;;69.50;20.20;;;3.90;99.90;;;;;;5112257;27;20258;-44
2022/01/12 12:12:11;;;;;;;60.65;19.45;;;4.00;99.90;;;;;;5131031;27;20569;-53
2022/01/12 12:14:36;;;;;;;54.90;19.38;;;4.00;99.90;;;;;;5132174;27;20175;-51
2022/01/12 12:17:03;;;;;;;72.60;20.45;;;4.00;99.90;;;;;;5131712;27;20685;-52
2022/01/12 12:19:29;;;;;;;59.83;20.08;;;4.10;99.90;;;;;;5132012;27;20190;-53
2022/01/12 12:21:55;;;;;;;63.47;19.83;;;4.10;99.90;;;;;;5131948;27;20530;-49
2022/01/12 12:24:20;;;;;;;59.10;20.92;;;4.10;99.90;;;;;;5132060;27;20152;-51
2022/01/12 12:26:52;;;;;;;56.47;18.95;;;4.10;99.90;;;;;;5131971;27;20171;-50
2022/01/12 12:29:25;;;;;;;57.92;19.50;;;4.10;99.90;;;;;;5131604;27;20168;-51
2022/01/12 12:31:52;;;;;;;53.42;20.58;;;4.10;99.90;;;;;;5130854;27;20179;-52
2022/01/12 12:34:20;;;;;;;60.00;21.05;;;4.10;99.90;;;;;;5131672;27;20164;-43
2022/01/12 12:36:46;;;;;;;57.60;20.63;;;4.10;99.90;;;;;;5132452;27;20207;-45
2022/01/12 12:39:14;;;;;;;62.78;21.45;;;4.10;99.90;;;;;;5132049;27;20652;-46
2022/01/12 12:41:42;;;;;;;66.82;21.67;;;4.20;99.90;;;;;;5131948;27;20168;-46
2022/01/12 12:44:26;;;;;;;64.72;22.63;;;4.20;99.90;;;;;;5131984;27;20267;-52
2022/01/12 12:47:03;;;;;;;57.83;19.60;;;4.20;99.90;;;;;;5131919;27;20559;-45
2022/01/12 12:49:29;;;;;;;59.85;18.98;;;4.20;99.90;;;;;;5132311;27;20166;-45
2022/01/12 12:52:03;;;;;;;50.03;19.10;;;4.20;99.90;;;;;;5132056;27;20560;-44
2022/01/12 12:54:30;;;;;;;53.38;19.65;;;4.20;99.90;;;;;;5113037;27;20174;-50
2022/01/12 12:57:06;;;;;;;57.63;20.85;;;4.30;99.90;;;;;;5131850;27;20191;-43
2022/01/12 12:59:32;;;;;;;63.00;23.08;;;4.20;99.90;;;;;;5131919;27;20178;-48
2022/01/12 13:01:58;;;;;;;61.10;22.77;;;4.30;99.90;;;;;;5132137;27;20175;-56
2022/01/12 13:04:24;;;;;;;64.72;23.13;;;4.30;99.90;;;;;;5131674;28;20696;-47
2022/01/12 13:06:49;;;;;;;53.30;21.50;;;4.30;99.90;;;;;;5132097;28;20168;-50
2022/01/12 13:09:16;;;;;;;60.00;22.58;;;4.40;99.90;;;;;;5113367;28;20635;-47
2022/01/12 13:11:49;;;;;;;56.53;21.38;;;4.40;99.90;;;;;;5131720;28;20225;-47
2022/01/12 13:14:16;;;;;;;53.05;19.38;;;4.40;99.90;;;;;;5090771;28;20717;-48
2022/01/12 13:16:52;;;;;;;46.00;18.75;;;4.30;99.90;;;;;;5090702;28;20197;-51
2022/01/12 13:21:07;;;;;;;60.35;22.73;;;4.30;99.90;;;;;;5090703;28;20161;-51
2022/01/12 13:22:38;;;;;;;53.38;23.02;;;4.40;99.90;;;;;;5089451;28;20192;-49
2022/01/12 13:25:12;;;;;;;51.90;21.67;;;4.40;99.90;;;;;;5090391;28;20529;-57
2022/01/12 13:27:39;;;;;;;54.42;21.25;;;4.40;99.90;;;;;;5090357;28;20165;-50
2022/01/12 13:30:09;;;;;;;53.45;21.30;;;4.40;99.90;;;;;;5088473;28;20169;-54
2022/01/12 13:32:37;;;;;;;57.30;20.98;;;4.40;99.90;;;;;;5088881;28;20173;-55
2022/01/12 13:35:08;;;;;;;57.83;22.13;;;4.50;99.90;;;;;;5089077;28;20173;-52
2022/01/12 13:37:33;;;;;;;65.97;23.48;;;4.30;99.90;;;;;;5088552;28;20177;-50
2022/01/12 13:40:17;;;;;;;68.63;23.67;;;4.30;99.90;;;;;;5090163;28;20211;-47
2022/01/12 13:42:54;;;;;;;61.03;23.77;;;4.30;99.90;;;;;;5090145;28;20161;-47
2022/01/12 13:45:36;;;;;;;76.80;23.65;;;4.30;99.90;;;;;;5089893;28;20568;-48
2022/01/12 13:48:11;;;;;;;59.85;24.00;;;4.40;99.90;;;;;;5090149;28;20259;-45
2022/01/12 13:50:38;;;;;;;62.25;22.60;;;4.40;99.90;;;;;;5089243;28;20259;-51
2022/01/12 13:53:05;;;;;;;59.63;23.10;;;4.30;99.90;;;;;;5088830;28;20162;-46
2022/01/12 13:55:31;;;;;;;56.55;23.55;;;4.40;99.90;;;;;;5089364;28;20262;-46
2022/01/12 13:58:05;;;;;;;62.25;23.02;;;4.50;99.90;;;;;;5091035;28;20197;-52
2022/01/12 14:00:32;;;;;;;61.45;22.90;;;4.40;99.90;;;;;;5094211;28;20161;-43
2022/01/12 14:02:58;;;;;;;58.83;23.60;;;4.50;99.90;;;;;;5092943;28;20173;-55